Landers, California
Current Conditions -  °F | °C
As of 8:56 AM on Thursday 18 Dec 2014 (Local Time) from KNXP Reporting Station
Few Clouds Few Clouds  
Wind Chill: 44°   Ceiling: Unl
Heat Index: 44°   Visibility: 10mi
Dew Point: 37°   Wind: 3mph
Humidity: 76%   Direction: 330°NNW
Pressure: 30.25"   Gusts: NA
Location:  34.27°N, 116.39°W
Report Text: KNXP 181656Z 33003KT 10SM FEW150 07/03 A3025 RMK AO2 SLP232 T00670028 $
Loading
Personal Weather Stations






























Interactive Weather Map New forecast layout! Learn more

10-Day Weather Forecast

Advertisements
Track Severe Weather on mobile